createdAt,value
2018-11-11T00:00:18.464Z,16.70
2018-11-11T00:02:48.058Z,12.10
2018-11-11T00:05:17.144Z,15.78
2018-11-11T00:07:46.482Z,15.67
2018-11-11T00:10:15.792Z,14.87
2018-11-11T00:12:45.129Z,10.57
2018-11-11T00:15:15.508Z,10.63
2018-11-11T00:17:46.031Z,13.93
2018-11-11T00:20:15.370Z,14.33
2018-11-11T00:22:44.697Z,14.87
2018-11-11T00:25:14.028Z,14.67
2018-11-11T00:27:43.361Z,12.67
2018-11-11T00:30:14.853Z,12.07
2018-11-11T00:32:44.356Z,11.13
2018-11-11T00:35:13.444Z,13.20
2018-11-11T00:37:42.832Z,12.60
2018-11-11T00:40:14.206Z,13.10
2018-11-11T00:42:43.968Z,10.67
2018-11-11T00:45:14.031Z,11.50
2018-11-11T00:47:44.259Z,10.45
2018-11-11T00:50:13.687Z,15.33
2018-11-11T00:52:43.031Z,10.57
2018-11-11T00:55:14.148Z,10.68
2018-11-11T00:57:43.751Z,11.03
2018-11-11T01:00:16.109Z,12.57
2018-11-11T01:02:46.038Z,8.67
2018-11-11T01:05:15.616Z,7.67
2018-11-11T01:07:44.708Z,10.17
2018-11-11T01:10:15.634Z,8.57
2018-11-11T01:12:45.684Z,10.17
2018-11-11T01:15:16.095Z,10.27
2018-11-11T01:17:45.423Z,11.00
2018-11-11T01:20:16.253Z,8.60
2018-11-11T01:22:46.264Z,11.70
2018-11-11T01:25:16.672Z,8.07
2018-11-11T01:27:45.976Z,10.13
2018-11-11T01:30:15.295Z,7.57
2018-11-11T01:32:44.598Z,7.57
2018-11-11T01:35:15.124Z,12.50
2018-11-11T01:37:44.831Z,10.08
2018-11-11T01:40:14.632Z,11.80
2018-11-11T01:42:44.155Z,10.70
2018-11-11T01:45:16.018Z,8.33
2018-11-11T01:47:46.039Z,9.45
2018-11-11T01:50:15.179Z,10.13
2018-11-11T01:52:44.555Z,8.40
2018-11-11T01:55:14.562Z,9.67
2018-11-11T01:57:43.700Z,12.20
2018-11-11T02:00:16.406Z,9.40
2018-11-11T02:02:47.086Z,9.17
2018-11-11T02:05:16.661Z,9.87
2018-11-11T02:07:46.766Z,8.53
2018-11-11T02:10:16.095Z,7.47
2018-11-11T02:12:46.115Z,8.53
2018-11-11T02:15:16.324Z,9.40
2018-11-11T02:17:45.651Z,7.37
2018-11-11T02:20:17.076Z,7.00
2018-11-11T02:22:47.309Z,9.38
2018-11-11T02:25:16.678Z,8.10
2018-11-11T02:27:46.514Z,9.23
2018-11-11T02:30:17.361Z,6.97
2018-11-11T02:32:46.504Z,10.43
2018-11-11T02:35:16.379Z,7.80
2018-11-11T02:37:45.559Z,6.00
2018-11-11T02:40:16.267Z,6.73
2018-11-11T02:42:46.006Z,7.27
2018-11-11T02:45:16.225Z,8.60
2018-11-11T02:47:45.573Z,9.80
2018-11-11T02:50:16.550Z,4.70
2018-11-11T02:52:46.774Z,8.10
2018-11-11T02:55:16.977Z,6.40
2018-11-11T02:57:46.717Z,6.20
2018-11-11T03:00:17.427Z,5.50
2018-11-11T03:02:52.469Z,6.67
2018-11-11T03:05:27.269Z,8.40
2018-11-11T03:08:02.352Z,6.43
2018-11-11T03:10:37.445Z,7.70
2018-11-11T03:13:12.503Z,7.50
2018-11-11T03:15:47.616Z,6.03
2018-11-11T03:18:22.779Z,6.40
2018-11-11T03:20:57.871Z,5.67
2018-11-11T03:23:32.961Z,7.10
2018-11-11T03:26:08.184Z,8.13
2018-11-11T03:28:43.314Z,7.73
2018-11-11T03:31:18.392Z,11.07
2018-11-11T03:33:53.196Z,7.13
2018-11-11T03:36:28.220Z,8.30
2018-11-11T03:39:03.424Z,4.93
2018-11-11T03:41:38.835Z,5.33
2018-11-11T03:44:13.756Z,6.37
2018-11-11T03:46:48.775Z,7.00
2018-11-11T03:49:23.602Z,7.87
2018-11-11T03:51:58.642Z,5.23
2018-11-11T03:54:33.802Z,5.60
2018-11-11T03:57:08.628Z,7.20
2018-11-11T03:59:43.417Z,6.30
2018-11-11T04:02:18.200Z,6.30
2018-11-11T04:04:52.990Z,6.10
2018-11-11T04:07:27.767Z,6.97
2018-11-11T04:10:02.647Z,4.73
2018-11-11T04:12:37.726Z,5.93
2018-11-11T04:15:14.255Z,5.33
2018-11-11T04:17:49.554Z,6.03
2018-11-11T04:20:24.168Z,5.10
2018-11-11T04:22:59.209Z,5.50
2018-11-11T04:25:34.028Z,6.63
2018-11-11T04:28:08.989Z,6.07
2018-11-11T04:30:43.887Z,5.07
2018-11-11T04:33:18.616Z,6.57
2018-11-11T04:35:53.318Z,4.87
2018-11-11T04:38:28.085Z,7.47
2018-11-11T04:41:02.949Z,8.07
2018-11-11T04:43:37.759Z,6.20
2018-11-11T04:46:12.841Z,4.43
2018-11-11T04:48:47.840Z,4.23
2018-11-11T04:51:22.888Z,5.53
2018-11-11T04:53:57.942Z,4.53
2018-11-11T04:56:33.080Z,4.87
2018-11-11T04:59:08.121Z,4.43
2018-11-11T05:01:43.167Z,4.60
2018-11-11T05:04:18.160Z,5.93
2018-11-11T05:06:53.253Z,7.27
2018-11-11T05:09:28.375Z,5.73
2018-11-11T05:12:03.148Z,4.13
2018-11-11T05:14:37.952Z,6.10
2018-11-11T05:17:13.000Z,5.60
2018-11-11T05:19:48.113Z,5.27
2018-11-11T05:22:22.935Z,5.50
2018-11-11T05:24:57.916Z,4.63
2018-11-11T05:27:33.093Z,7.53
2018-11-11T05:30:09.888Z,8.53
2018-11-11T05:32:44.584Z,6.37
2018-11-11T05:35:19.806Z,5.27
2018-11-11T05:37:54.841Z,4.43
2018-11-11T05:40:29.699Z,5.43
2018-11-11T05:43:04.679Z,4.23
2018-11-11T05:45:39.529Z,3.70
2018-11-11T05:48:14.276Z,4.10
2018-11-11T05:50:49.246Z,6.07
2018-11-11T05:53:24.163Z,4.97
2018-11-11T05:55:59.173Z,3.43
2018-11-11T05:58:34.142Z,7.27
2018-11-11T06:01:08.932Z,4.23
2018-11-11T06:03:43.948Z,5.90
2018-11-11T06:06:18.886Z,3.67
2018-11-11T06:08:53.679Z,3.60
2018-11-11T06:11:28.724Z,4.60
2018-11-11T06:14:03.537Z,4.17
2018-11-11T06:16:38.507Z,3.87
2018-11-11T06:19:13.155Z,3.50
2018-11-11T06:21:47.927Z,4.27
2018-11-11T06:24:22.827Z,4.03
2018-11-11T06:26:57.919Z,3.97
2018-11-11T06:29:33.012Z,4.73
2018-11-11T06:32:08.253Z,6.43
2018-11-11T06:34:43.072Z,3.70
2018-11-11T06:37:18.188Z,5.23
2018-11-11T06:39:53.077Z,3.67
2018-11-11T06:42:28.163Z,4.40
2018-11-11T06:45:03.092Z,4.83
2018-11-11T06:47:38.052Z,5.23
2018-11-11T06:50:14.271Z,3.60
2018-11-11T06:52:49.102Z,4.27
2018-11-11T06:55:23.854Z,4.27
2018-11-11T06:57:58.776Z,3.40
2018-11-11T07:00:33.849Z,4.17
2018-11-11T07:03:20.379Z,3.43
2018-11-11T07:05:55.379Z,3.87
2018-11-11T07:08:30.212Z,3.77
2018-11-11T07:11:05.367Z,3.43
2018-11-11T07:13:40.186Z,3.10
2018-11-11T07:16:15.009Z,3.77
2018-11-11T07:18:49.868Z,3.70
2018-11-11T07:21:24.967Z,5.00
2018-11-11T07:24:00.010Z,4.60
2018-11-11T07:26:35.032Z,3.73
2018-11-11T07:29:09.844Z,3.00
2018-11-11T07:31:44.910Z,3.47
2018-11-11T07:34:19.703Z,4.00
2018-11-11T07:36:54.951Z,3.97
2018-11-11T07:39:29.999Z,3.70
2018-11-11T07:42:05.158Z,5.30
2018-11-11T07:44:40.097Z,5.03
2018-11-11T07:47:14.933Z,5.97
2018-11-11T07:49:49.959Z,3.70
2018-11-11T07:52:24.732Z,10.13
2018-11-11T07:54:59.605Z,11.73
2018-11-11T07:57:34.800Z,15.43
2018-11-11T08:00:12.184Z,20.47
2018-11-11T08:02:46.967Z,17.00
2018-11-11T08:05:21.754Z,5.80
2018-11-11T08:07:56.502Z,8.10
2018-11-11T08:10:36.700Z,6.83
2018-11-11T08:13:11.715Z,21.77
2018-11-11T08:15:46.535Z,44.20
2018-11-11T08:18:21.540Z,23.80
2018-11-11T08:20:56.500Z,22.10
2018-11-11T08:23:31.290Z,15.17
2018-11-11T08:26:06.112Z,20.77
2018-11-11T08:28:41.079Z,23.67
2018-11-11T08:31:16.131Z,33.83
2018-11-11T08:33:51.025Z,73.20
2018-11-11T08:36:26.064Z,84.00
2018-11-11T08:39:01.958Z,77.33
2018-11-11T08:41:37.285Z,65.47
2018-11-11T08:44:12.679Z,67.40
2018-11-11T08:46:47.469Z,44.33
2018-11-11T08:49:22.278Z,43.50
2018-11-11T08:51:57.253Z,24.13
2018-11-11T08:54:32.251Z,28.80
2018-11-11T08:57:07.230Z,28.70
2018-11-11T08:59:42.323Z,14.30
2018-11-11T09:02:17.204Z,8.93
2018-11-11T09:04:52.020Z,16.20
2018-11-11T09:07:26.961Z,12.77
2018-11-11T09:10:02.049Z,10.80
2018-11-11T09:12:37.160Z,8.57
2018-11-11T09:15:13.107Z,11.20
2018-11-11T09:17:47.731Z,8.83
2018-11-11T09:20:22.379Z,5.80
2018-11-11T09:22:57.340Z,5.30
2018-11-11T09:25:31.992Z,7.30
2018-11-11T09:28:06.812Z,5.83
2018-11-11T09:30:41.836Z,6.00
2018-11-11T09:33:16.747Z,12.57
2018-11-11T09:35:51.723Z,6.97
2018-11-11T09:38:26.643Z,6.17
2018-11-11T09:41:01.645Z,6.07
2018-11-11T09:43:37.036Z,40.27
2018-11-11T09:46:12.208Z,17.13
2018-11-11T09:48:47.294Z,15.23
2018-11-11T09:51:22.114Z,12.23
2018-11-11T09:53:57.029Z,7.70
2018-11-11T09:56:31.915Z,10.83
2018-11-11T09:59:07.375Z,11.20
2018-11-11T10:01:42.275Z,8.33
2018-11-11T10:04:27.922Z,9.90
2018-11-11T10:07:13.001Z,10.33
2018-11-11T10:09:55.168Z,12.20
2018-11-11T10:12:49.369Z,8.80
2018-11-11T10:15:46.965Z,6.87
2018-11-11T10:18:27.411Z,6.90
2018-11-11T10:21:07.306Z,8.00
2018-11-11T10:23:47.783Z,7.33
2018-11-11T10:26:37.093Z,5.17
2018-11-11T10:29:17.521Z,4.70
2018-11-11T10:31:59.147Z,6.77
2018-11-11T10:34:51.845Z,5.93
2018-11-11T10:37:33.878Z,13.37
2018-11-11T10:42:16.196Z,12.47
2018-11-11T10:45:03.239Z,4.97
2018-11-11T10:48:14.231Z,11.83
2018-11-11T10:50:52.309Z,9.47
2018-11-11T10:53:27.168Z,4.80
2018-11-11T10:56:02.307Z,7.70
2018-11-11T10:58:37.412Z,5.77
2018-11-11T11:01:22.686Z,10.67
2018-11-11T11:03:57.669Z,14.90
2018-11-11T11:06:38.282Z,5.20
2018-11-11T11:09:14.368Z,12.20
2018-11-11T11:11:49.222Z,4.53
2018-11-11T11:14:24.027Z,5.17
2018-11-11T11:16:59.062Z,5.47
2018-11-11T11:19:33.699Z,9.27
2018-11-11T11:22:08.650Z,3.40
2018-11-11T11:24:43.405Z,3.50
2018-11-11T11:27:18.265Z,8.63
2018-11-11T11:29:53.107Z,6.30
2018-11-11T11:32:28.464Z,6.33
2018-11-11T11:35:03.918Z,5.53
2018-11-11T11:37:39.475Z,6.50
2018-11-11T11:40:14.218Z,5.40
2018-11-11T11:42:48.858Z,7.10
2018-11-11T11:45:23.838Z,5.80
2018-11-11T11:47:58.923Z,4.70
2018-11-11T11:50:33.873Z,3.27
2018-11-11T11:53:08.663Z,8.60
2018-11-11T11:55:43.456Z,10.93
2018-11-11T11:58:22.107Z,5.10
2018-11-11T12:00:57.424Z,9.30
2018-11-11T12:03:32.211Z,3.33
2018-11-11T12:06:06.988Z,9.47
2018-11-11T12:08:41.960Z,7.20
2018-11-11T12:11:16.744Z,4.20
2018-11-11T12:13:51.532Z,6.50
2018-11-11T12:16:26.541Z,6.53
2018-11-11T12:19:01.372Z,8.93
2018-11-11T12:21:36.484Z,3.63
2018-11-11T12:24:11.377Z,3.40
2018-11-11T12:26:46.411Z,4.40
2018-11-11T12:29:21.393Z,5.77
2018-11-11T12:31:56.213Z,2.93
2018-11-11T12:34:31.057Z,4.73
2018-11-11T12:37:06.117Z,4.43
2018-11-11T12:39:41.082Z,3.33
2018-11-11T12:42:16.138Z,3.03
2018-11-11T12:44:51.270Z,5.37
2018-11-11T12:47:26.199Z,4.93
2018-11-11T12:50:01.294Z,2.63
2018-11-11T12:52:36.471Z,4.80
2018-11-11T12:55:11.543Z,4.40
2018-11-11T12:57:46.522Z,3.03
2018-11-11T13:00:21.328Z,4.00
2018-11-11T13:02:56.386Z,3.73
2018-11-11T13:05:31.502Z,11.73
2018-11-11T13:08:06.572Z,3.20
2018-11-11T13:10:41.489Z,2.93
2018-11-11T13:13:16.267Z,2.23
2018-11-11T13:15:51.312Z,2.13
2018-11-11T13:18:26.212Z,3.17
2018-11-11T13:21:01.048Z,2.70
2018-11-11T13:23:35.925Z,6.70
2018-11-11T13:26:10.837Z,3.40
2018-11-11T13:28:45.604Z,2.10
2018-11-11T13:31:20.408Z,3.30
2018-11-11T13:33:55.210Z,3.03
2018-11-11T13:36:30.243Z,3.97
2018-11-11T13:39:09.052Z,27.90
2018-11-11T13:41:44.227Z,50.10
2018-11-11T13:44:19.256Z,83.03
2018-11-11T13:46:54.420Z,73.27
2018-11-11T13:49:29.499Z,95.63
2018-11-11T13:52:04.540Z,103.33
2018-11-11T13:54:39.471Z,102.07
2018-11-11T13:57:14.318Z,94.67
2018-11-11T13:59:49.332Z,81.80
2018-11-11T14:02:24.168Z,72.60
2018-11-11T14:04:59.188Z,84.53
2018-11-11T14:07:34.032Z,62.33
2018-11-11T14:10:09.815Z,69.37
2018-11-11T14:12:44.728Z,67.13
2018-11-11T14:15:22.007Z,61.80
2018-11-11T14:17:57.330Z,54.70
2018-11-11T14:20:32.040Z,71.33
2018-11-11T14:23:07.060Z,50.17
2018-11-11T14:25:41.931Z,43.47
2018-11-11T14:28:16.873Z,50.17
2018-11-11T14:30:51.907Z,40.57
2018-11-11T14:33:26.827Z,53.40
2018-11-11T14:36:01.780Z,52.00
2018-11-11T14:38:36.647Z,39.60
2018-11-11T14:41:11.360Z,46.50
2018-11-11T14:43:46.160Z,40.13
2018-11-11T14:46:20.998Z,47.63
2018-11-11T14:48:56.051Z,39.90
2018-11-11T14:51:31.083Z,41.03
2018-11-11T14:54:05.952Z,52.93
2018-11-11T14:56:41.032Z,31.07
2018-11-11T14:59:16.308Z,34.07
2018-11-11T15:01:50.971Z,34.27
2018-11-11T15:04:25.815Z,37.57
2018-11-11T15:07:00.609Z,45.73
2018-11-11T15:09:35.619Z,28.93
2018-11-11T15:12:10.736Z,27.83
2018-11-11T15:14:45.576Z,39.17
2018-11-11T15:17:20.668Z,29.93
2018-11-11T15:19:55.923Z,38.10
2018-11-11T15:22:30.621Z,33.33
2018-11-11T15:25:06.359Z,30.20
2018-11-11T15:27:42.085Z,29.80
2018-11-11T15:30:19.600Z,39.83
2018-11-11T15:32:55.123Z,26.40
2018-11-11T15:35:29.894Z,26.63
2018-11-11T15:38:05.100Z,37.30
2018-11-11T15:40:40.320Z,24.00
2018-11-11T15:43:15.148Z,29.00
2018-11-11T15:45:49.959Z,28.10
2018-11-11T15:48:24.968Z,28.00
2018-11-11T15:50:59.802Z,29.03
2018-11-11T15:53:34.595Z,30.07
2018-11-11T15:56:09.468Z,41.83
2018-11-11T15:58:44.365Z,22.33
2018-11-11T16:01:19.168Z,30.70
2018-11-11T16:03:54.052Z,20.30
2018-11-11T16:06:29.190Z,21.87
2018-11-11T16:09:06.162Z,19.63
2018-11-11T16:11:41.180Z,27.97
2018-11-11T16:14:16.373Z,21.63
2018-11-11T16:16:51.197Z,23.80
2018-11-11T16:19:25.946Z,19.93
2018-11-11T16:22:00.750Z,23.37
2018-11-11T16:24:35.765Z,15.80
2018-11-11T16:27:10.544Z,18.03
2018-11-11T16:29:45.469Z,21.27
2018-11-11T16:32:20.310Z,12.60
2018-11-11T16:34:55.068Z,15.40
2018-11-11T16:37:29.833Z,19.97
2018-11-11T16:40:06.704Z,16.67
2018-11-11T16:42:41.695Z,17.30
2018-11-11T16:45:20.093Z,16.73
2018-11-11T16:47:55.223Z,13.37
2018-11-11T16:50:31.879Z,19.83
2018-11-11T16:53:08.497Z,15.17
2018-11-11T16:55:43.514Z,11.53
2018-11-11T16:58:18.397Z,16.17
2018-11-11T17:00:53.416Z,17.30
2018-11-11T17:03:28.449Z,14.47
2018-11-11T17:06:03.372Z,16.97
2018-11-11T17:08:38.156Z,10.40
2018-11-11T17:11:12.890Z,13.40
2018-11-11T17:13:47.906Z,11.63
2018-11-11T17:16:23.020Z,12.43
2018-11-11T17:18:58.160Z,10.87
2018-11-11T17:21:33.328Z,12.80
2018-11-11T17:24:08.292Z,14.00
2018-11-11T17:26:43.338Z,15.70
2018-11-11T17:29:18.181Z,16.33
2018-11-11T17:31:53.196Z,7.67
2018-11-11T17:34:28.208Z,12.47
2018-11-11T17:37:02.829Z,14.47
2018-11-11T17:39:37.632Z,11.93
2018-11-11T17:42:12.421Z,8.80
2018-11-11T17:44:47.200Z,11.83
2018-11-11T17:47:22.241Z,9.90
2018-11-11T17:49:57.476Z,10.13
2018-11-11T17:52:32.316Z,14.70
2018-11-11T17:55:07.392Z,12.20
2018-11-11T17:57:42.760Z,13.70
2018-11-11T18:00:19.195Z,12.10
2018-11-11T18:02:54.642Z,12.73
2018-11-11T18:05:30.552Z,9.60
2018-11-11T18:08:05.972Z,8.30
2018-11-11T18:10:40.965Z,7.23
2018-11-11T18:13:15.596Z,7.17
2018-11-11T18:15:50.380Z,8.63
2018-11-11T18:18:25.181Z,13.53
2018-11-11T18:21:00.048Z,5.60
2018-11-11T18:23:34.846Z,8.83
2018-11-11T18:26:09.750Z,5.20
2018-11-11T18:28:44.894Z,8.07
2018-11-11T18:31:19.770Z,14.40
2018-11-11T18:33:54.512Z,10.47
2018-11-11T18:36:29.513Z,7.53
2018-11-11T18:39:06.863Z,7.73
2018-11-11T18:41:42.077Z,10.40
2018-11-11T18:44:17.084Z,6.10
2018-11-11T18:46:52.035Z,13.83
2018-11-11T18:49:27.068Z,4.77
2018-11-11T18:52:02.096Z,5.40
2018-11-11T18:54:37.157Z,5.83
2018-11-11T18:57:11.934Z,13.83
2018-11-11T18:59:46.688Z,7.60
2018-11-11T19:02:21.700Z,5.90
2018-11-11T19:04:56.476Z,7.03
2018-11-11T19:07:31.317Z,8.73
2018-11-11T19:10:07.145Z,6.57
2018-11-11T19:12:42.797Z,7.00
2018-11-11T19:15:18.475Z,13.60
2018-11-11T19:17:54.111Z,2.80
2018-11-11T19:20:29.562Z,5.87
2018-11-11T19:23:04.887Z,10.63
2018-11-11T19:25:39.554Z,9.17
2018-11-11T19:28:14.426Z,11.57
2018-11-11T19:30:49.454Z,6.30
2018-11-11T19:33:24.555Z,8.80
2018-11-11T19:35:59.576Z,7.03
2018-11-11T19:38:34.665Z,3.50
2018-11-11T19:41:09.816Z,7.00
2018-11-11T19:43:44.831Z,7.17
2018-11-11T19:46:19.899Z,3.80
2018-11-11T19:48:54.955Z,6.00
2018-11-11T19:51:29.793Z,6.00
2018-11-11T19:54:04.627Z,6.40
2018-11-11T19:56:39.506Z,6.00
2018-11-11T19:59:14.360Z,5.87
2018-11-11T20:01:49.417Z,8.60
2018-11-11T20:04:24.223Z,7.00
2018-11-11T20:06:59.001Z,6.60
2018-11-11T20:09:34.058Z,5.03
2018-11-11T20:12:09.213Z,4.03
2018-11-11T20:14:44.341Z,4.67
2018-11-11T20:17:19.508Z,5.47
2018-11-11T20:19:54.372Z,3.33
2018-11-11T20:22:29.022Z,3.63
2018-11-11T20:25:03.671Z,5.90
2018-11-11T20:27:38.951Z,5.67
2018-11-11T20:30:16.380Z,4.87
2018-11-11T20:32:51.701Z,5.77
2018-11-11T20:35:28.325Z,4.93
2018-11-11T20:38:03.433Z,5.87
2018-11-11T20:40:38.421Z,6.20
2018-11-11T20:43:13.229Z,2.33
2018-11-11T20:45:47.975Z,5.60
2018-11-11T20:48:22.889Z,5.20
2018-11-11T20:50:57.727Z,6.80
2018-11-11T20:53:32.700Z,3.70
2018-11-11T20:56:07.916Z,2.83
2018-11-11T20:58:42.860Z,3.30
2018-11-11T21:01:18.040Z,7.17
2018-11-11T21:03:53.220Z,5.20
2018-11-11T21:06:28.235Z,10.07
2018-11-11T21:09:03.670Z,2.53
2018-11-11T21:11:38.805Z,3.23
2018-11-11T21:14:13.895Z,5.00
2018-11-11T21:16:49.076Z,10.00
2018-11-11T21:19:24.020Z,14.93
2018-11-11T21:21:59.204Z,22.40
2018-11-11T21:24:34.608Z,21.57
2018-11-11T21:27:10.047Z,28.93
2018-11-11T21:29:44.816Z,38.20
2018-11-11T21:32:20.326Z,42.40
2018-11-11T21:34:55.501Z,33.70
2018-11-11T21:37:30.299Z,26.07
2018-11-11T21:40:06.505Z,33.03
2018-11-11T21:42:42.224Z,33.23
2018-11-11T21:45:19.209Z,40.63
2018-11-11T21:47:54.193Z,43.40
2018-11-11T21:50:29.668Z,33.77
2018-11-11T21:53:15.119Z,40.93
2018-11-11T21:55:50.524Z,45.20
2018-11-11T21:58:25.507Z,32.10
2018-11-11T22:01:00.551Z,34.20
2018-11-11T22:03:35.627Z,29.40
2018-11-11T22:06:10.531Z,44.43
2018-11-11T22:08:45.546Z,42.63
2018-11-11T22:11:20.396Z,37.93
2018-11-11T22:13:55.063Z,35.23
2018-11-11T22:16:30.415Z,29.30
2018-11-11T22:19:05.303Z,30.20
2018-11-11T22:21:40.311Z,34.77
2018-11-11T22:24:15.277Z,25.10
2018-11-11T22:26:50.525Z,36.60
2018-11-11T22:29:25.563Z,31.83
2018-11-11T22:32:00.621Z,28.77
2018-11-11T22:34:35.597Z,29.73
2018-11-11T22:37:10.319Z,27.77
2018-11-11T22:39:45.336Z,27.20
2018-11-11T22:42:20.219Z,29.03
2018-11-11T22:44:54.989Z,31.03
2018-11-11T22:47:30.013Z,25.23
2018-11-11T22:50:05.640Z,25.80
2018-11-11T22:52:40.588Z,27.37
2018-11-11T22:55:15.979Z,29.00
2018-11-11T22:57:50.807Z,28.00
2018-11-11T23:00:29.867Z,33.27
2018-11-11T23:03:05.039Z,24.40
2018-11-11T23:05:40.079Z,25.67
2018-11-11T23:08:15.135Z,25.53
2018-11-11T23:10:50.111Z,27.80
2018-11-11T23:13:25.133Z,23.63
2018-11-11T23:16:00.299Z,24.47
2018-11-11T23:18:35.051Z,24.67
2018-11-11T23:21:10.099Z,20.67
2018-11-11T23:23:45.209Z,28.40
2018-11-11T23:26:20.297Z,21.53
2018-11-11T23:28:55.386Z,21.33
2018-11-11T23:31:30.468Z,19.70
2018-11-11T23:34:05.781Z,26.07
2018-11-11T23:36:40.683Z,25.03
2018-11-11T23:39:15.488Z,24.93
2018-11-11T23:41:52.725Z,21.43
2018-11-11T23:44:27.607Z,19.33
2018-11-11T23:47:02.389Z,18.10
2018-11-11T23:49:37.471Z,20.30
2018-11-11T23:52:12.358Z,17.07
2018-11-11T23:54:47.444Z,22.43
2018-11-11T23:57:22.527Z,18.37
2018-11-11T23:59:58.435Z,21.13
